TimeCST,TemperatureF,Dew PointF,Humidity,Sea Level PressureIn,VisibilityMPH,Wind Direction,Wind SpeedMPH,Gust SpeedMPH,PrecipitationIn,Events,Conditions,WindDirDegrees,DateUTC
12:53 AM,28.0,19.0,69,30.27,10.0,NNW,6.9,-,N/A,,Clear,340,2013-01-21 06:53:00
1:53 AM,28.0,17.1,63,30.28,10.0,North,5.8,-,N/A,,Clear,350,2013-01-21 07:53:00
2:53 AM,28.0,17.1,63,30.30,10.0,North,11.5,-,N/A,,Clear,360,2013-01-21 08:53:00
3:53 AM,27.0,17.1,66,30.30,10.0,NNW,10.4,-,N/A,,Clear,340,2013-01-21 09:53:00
4:53 AM,26.1,16.0,66,30.32,10.0,NNW,10.4,-,N/A,,Clear,340,2013-01-21 10:53:00
5:53 AM,24.1,14.0,65,30.34,10.0,North,11.5,-,N/A,,Clear,350,2013-01-21 11:53:00
6:53 AM,23.0,12.9,65,30.37,10.0,NNW,11.5,-,N/A,,Clear,340,2013-01-21 12:53:00
7:53 AM,24.1,12.9,62,30.38,10.0,NNW,6.9,-,N/A,,Clear,330,2013-01-21 13:53:00
8:53 AM,26.1,12.0,55,30.38,10.0,NNW,10.4,-,N/A,,Clear,340,2013-01-21 14:53:00
9:53 AM,27.0,10.9,51,30.39,10.0,NNW,13.8,-,N/A,,Clear,330,2013-01-21 15:53:00
10:53 AM,30.0,10.9,45,30.38,10.0,NW,10.4,18.4,N/A,,Clear,310,2013-01-21 16:53:00
11:53 AM,30.9,10.9,43,30.34,10.0,WNW,10.4,-,N/A,,Clear,290,2013-01-21 17:53:00
12:53 PM,33.1,12.0,42,30.30,10.0,NW,10.4,-,N/A,,Clear,310,2013-01-21 18:53:00
1:53 PM,36.0,12.9,39,30.29,10.0,NW,17.3,25.3,N/A,,Clear,310,2013-01-21 19:53:00
2:53 PM,36.0,12.0,37,30.30,10.0,NNW,19.6,27.6,N/A,,Clear,330,2013-01-21 20:53:00
3:53 PM,35.1,10.0,35,30.31,10.0,NNW,12.7,20.7,N/A,,Clear,340,2013-01-21 21:53:00
4:53 PM,32.0,10.0,40,30.32,10.0,NNW,11.5,-,N/A,,Clear,340,2013-01-21 22:53:00
5:53 PM,28.9,10.9,47,30.33,10.0,North,10.4,-,N/A,,Clear,360,2013-01-21 23:53:00
6:53 PM,28.0,10.9,49,30.34,10.0,North,8.1,-,N/A,,Mostly Cloudy,10,2013-01-22 00:53:00
7:53 PM,25.0,10.9,55,30.34,10.0,North,5.8,-,N/A,,Partly Cloudy,350,2013-01-22 01:53:00
8:53 PM,24.1,3.9,42,30.36,10.0,North,10.4,-,N/A,,Mostly Cloudy,360,2013-01-22 02:53:00
9:53 PM,24.1,3.9,42,30.37,10.0,North,10.4,-,N/A,,Partly Cloudy,10,2013-01-22 03:53:00
10:53 PM,23.0,3.0,42,30.39,10.0,North,12.7,-,N/A,,Overcast,360,2013-01-22 04:53:00
11:53 PM,21.9,1.9,42,30.40,10.0,North,12.7,-,N/A,,Overcast,350,2013-01-22 05:53:00